Homestead AFB, Florida
Current Conditions -  °F | °C
As of 3:58 AM on Monday 22 Dec 2014 (Local Time) from KHST Reporting Station
Clear Clear  
Wind Chill: 64°   Ceiling: Unl
Heat Index: 64°   Visibility: 10mi
Dew Point: 63°   Wind: 1mph
Humidity: 96%   Direction: 340°NNW
Pressure: 30.02"   Gusts: NA
Location:  25.5115°N, 80.4002°W
Report Text: KHST 220858Z AUTO 34001KT 10SM CLR 18/17 A3002 RMK AO2 SLP169 T01780172 57006 $
Loading
Personal Weather Stations






























Interactive Weather Map New forecast layout! Learn more

10-Day Weather Forecast

Advertisements
Track Severe Weather on mobile